createdAt,value
2022-12-29T00:00:22.845Z,4.92
2022-12-29T00:03:10.736Z,4.91
2022-12-29T00:05:38.504Z,4.89
2022-12-29T00:08:06.667Z,4.87
2022-12-29T00:10:34.501Z,4.84
2022-12-29T00:13:21.107Z,4.83
2022-12-29T00:15:49.132Z,4.81
2022-12-29T00:18:17.053Z,4.80
2022-12-29T00:21:04.075Z,4.78
2022-12-29T00:23:50.131Z,4.79
2022-12-29T00:26:37.041Z,4.82
2022-12-29T00:29:23.271Z,4.85
2022-12-29T00:32:09.582Z,4.91
2022-12-29T00:34:55.920Z,4.94
2022-12-29T00:37:43.675Z,4.98
2022-12-29T00:40:30.082Z,5.00
2022-12-29T00:43:18.173Z,4.99
2022-12-29T00:45:46.384Z,4.99
2022-12-29T00:48:14.365Z,5.00
2022-12-29T00:50:42.178Z,5.00
2022-12-29T00:53:09.999Z,5.00
2022-12-29T00:55:38.693Z,5.00
2022-12-29T00:58:07.168Z,5.01
2022-12-29T01:00:35.561Z,5.00
2022-12-29T01:03:03.742Z,5.00
2022-12-29T01:05:31.816Z,5.00
2022-12-29T01:07:59.760Z,4.99
2022-12-29T01:10:27.696Z,5.00
2022-12-29T01:12:55.398Z,5.01
2022-12-29T01:15:23.294Z,5.04
2022-12-29T01:17:51.113Z,5.06
2022-12-29T01:20:18.968Z,5.09
2022-12-29T01:22:47.725Z,5.11
2022-12-29T01:25:15.680Z,5.11
2022-12-29T01:27:43.385Z,5.11
2022-12-29T01:30:13.095Z,5.10
2022-12-29T01:32:41.927Z,5.08
2022-12-29T01:35:11.123Z,5.05
2022-12-29T01:37:39.220Z,5.02
2022-12-29T01:40:08.122Z,4.98
2022-12-29T01:42:35.977Z,4.95
2022-12-29T01:45:08.863Z,4.93
2022-12-29T01:47:39.495Z,4.90
2022-12-29T01:50:10.482Z,4.87
2022-12-29T01:52:41.514Z,4.84
2022-12-29T01:55:11.080Z,4.84
2022-12-29T01:57:41.708Z,4.83
2022-12-29T02:00:11.434Z,4.83
2022-12-29T02:02:43.839Z,4.85
2022-12-29T02:05:15.183Z,4.87
2022-12-29T02:07:43.109Z,4.87
2022-12-29T02:10:11.953Z,4.86
2022-12-29T02:12:39.741Z,4.84
2022-12-29T02:15:09.218Z,4.82
2022-12-29T02:17:43.357Z,4.80
2022-12-29T02:20:29.081Z,4.76
2022-12-29T02:23:01.855Z,4.72
2022-12-29T02:25:41.047Z,4.69
2022-12-29T02:28:25.136Z,4.66
2022-12-29T02:31:03.326Z,4.64
2022-12-29T02:33:41.098Z,4.64
2022-12-29T02:36:14.854Z,4.63
2022-12-29T02:38:49.605Z,4.65
2022-12-29T02:41:23.314Z,4.65
2022-12-29T02:43:55.404Z,4.66
2022-12-29T02:46:42.383Z,4.66
2022-12-29T02:49:15.587Z,4.64
2022-12-29T02:51:59.535Z,4.61
2022-12-29T02:54:43.246Z,4.56
2022-12-29T02:57:15.689Z,4.52
2022-12-29T02:59:44.400Z,4.46
2022-12-29T03:02:35.792Z,4.40
2022-12-29T03:05:18.302Z,4.35
2022-12-29T03:07:51.218Z,4.33
2022-12-29T03:10:29.108Z,4.31
2022-12-29T03:13:20.426Z,4.31
2022-12-29T03:16:04.055Z,4.30
2022-12-29T03:18:39.068Z,4.30
2022-12-29T03:21:12.238Z,4.31
2022-12-29T03:23:42.027Z,4.29
2022-12-29T03:26:12.390Z,4.26
2022-12-29T03:28:42.049Z,4.22
2022-12-29T03:31:11.122Z,4.16
2022-12-29T03:33:42.302Z,4.11
2022-12-29T03:36:12.963Z,4.05
2022-12-29T03:38:45.096Z,3.99
2022-12-29T03:41:15.452Z,3.92
2022-12-29T03:43:46.254Z,3.87
2022-12-29T03:46:14.826Z,3.83
2022-12-29T03:48:43.316Z,3.81
2022-12-29T03:51:11.195Z,3.79
2022-12-29T03:53:39.009Z,3.79
2022-12-29T03:56:07.267Z,3.78
2022-12-29T03:58:35.288Z,3.78
2022-12-29T04:01:16.572Z,3.74
2022-12-29T04:03:46.173Z,3.71
2022-12-29T04:06:14.006Z,3.68
2022-12-29T04:08:48.479Z,3.65
2022-12-29T04:11:16.172Z,3.59
2022-12-29T04:13:43.949Z,3.53
2022-12-29T04:16:16.050Z,3.50
2022-12-29T04:18:43.841Z,3.49
2022-12-29T04:21:11.755Z,3.48
2022-12-29T04:23:42.041Z,3.49
2022-12-29T04:26:11.422Z,3.51
2022-12-29T04:28:57.962Z,3.54
2022-12-29T04:31:39.431Z,3.57
2022-12-29T04:34:08.020Z,3.59
2022-12-29T04:36:35.690Z,3.58
2022-12-29T04:39:05.559Z,3.55
2022-12-29T04:41:34.993Z,3.52
2022-12-29T04:44:03.182Z,3.50
2022-12-29T04:46:34.445Z,3.46
2022-12-29T04:49:09.062Z,3.44
2022-12-29T04:51:59.734Z,3.41
2022-12-29T04:54:27.708Z,3.41
2022-12-29T04:57:01.621Z,3.42
2022-12-29T04:59:29.910Z,3.43
2022-12-29T05:01:59.973Z,3.44
2022-12-29T05:04:27.900Z,3.45
2022-12-29T05:06:55.680Z,3.46
2022-12-29T05:09:24.761Z,3.48
2022-12-29T05:11:52.843Z,3.47
2022-12-29T05:14:20.984Z,3.46
2022-12-29T05:16:48.950Z,3.44
2022-12-29T05:19:18.550Z,3.41
2022-12-29T05:21:47.290Z,3.39
2022-12-29T05:24:15.913Z,3.36
2022-12-29T05:26:44.364Z,3.33
2022-12-29T05:29:32.185Z,3.30
2022-12-29T05:32:00.054Z,3.28
2022-12-29T05:34:28.564Z,3.26
2022-12-29T05:36:56.849Z,3.26
2022-12-29T05:39:25.414Z,3.27
2022-12-29T05:41:57.544Z,3.30
2022-12-29T05:44:37.290Z,3.33
2022-12-29T05:47:11.081Z,3.36
2022-12-29T05:49:52.051Z,3.39
2022-12-29T05:52:52.298Z,3.40
2022-12-29T05:55:20.701Z,3.40
2022-12-29T05:57:50.274Z,3.39
2022-12-29T06:00:19.070Z,3.38
2022-12-29T06:02:47.894Z,3.38
2022-12-29T06:05:17.311Z,3.37
2022-12-29T06:07:45.866Z,3.36
2022-12-29T06:10:16.110Z,3.35
2022-12-29T06:12:48.313Z,3.35
2022-12-29T06:15:16.478Z,3.35
2022-12-29T06:17:46.781Z,3.36
2022-12-29T06:20:14.643Z,3.37
2022-12-29T06:22:42.518Z,3.39
2022-12-29T06:25:10.895Z,3.42
2022-12-29T06:27:39.776Z,3.45
2022-12-29T06:30:11.049Z,3.50
2022-12-29T06:32:39.920Z,3.56
2022-12-29T06:35:10.804Z,3.60
2022-12-29T06:37:43.616Z,3.63
2022-12-29T06:40:12.112Z,3.66
2022-12-29T06:42:58.385Z,3.68
2022-12-29T06:45:57.890Z,3.70
2022-12-29T06:48:25.672Z,3.73
2022-12-29T06:50:53.360Z,3.74
2022-12-29T06:53:20.993Z,3.76
2022-12-29T06:55:48.677Z,3.77
2022-12-29T06:58:16.557Z,3.77
2022-12-29T07:00:45.733Z,3.79
2022-12-29T07:03:13.699Z,3.81
2022-12-29T07:05:41.949Z,3.84
2022-12-29T07:08:09.839Z,3.89
2022-12-29T07:10:37.609Z,3.95
2022-12-29T07:13:05.374Z,4.01
2022-12-29T07:15:33.339Z,4.05
2022-12-29T07:18:01.391Z,4.09
2022-12-29T07:20:30.538Z,4.11
2022-12-29T07:22:58.452Z,4.12
2022-12-29T07:25:26.321Z,4.13
2022-12-29T07:27:54.431Z,4.14
2022-12-29T07:30:22.094Z,4.14
2022-12-29T07:32:49.771Z,4.16
2022-12-29T07:35:17.859Z,4.17
2022-12-29T07:37:45.754Z,4.17
2022-12-29T07:40:13.556Z,4.19
2022-12-29T07:42:41.939Z,4.20
2022-12-29T07:45:11.415Z,4.22
2022-12-29T07:48:03.007Z,4.23
2022-12-29T07:50:30.712Z,4.26
2022-12-29T07:52:58.351Z,4.29
2022-12-29T07:55:26.208Z,4.34
2022-12-29T07:57:55.969Z,4.39
2022-12-29T08:00:23.780Z,4.44
2022-12-29T08:02:53.243Z,4.49
2022-12-29T08:05:21.082Z,4.54
2022-12-29T08:07:49.242Z,4.59
2022-12-29T08:10:17.524Z,4.65
2022-12-29T08:12:45.226Z,4.70
2022-12-29T08:15:12.988Z,4.74
2022-12-29T08:17:40.883Z,4.78
2022-12-29T08:20:09.702Z,4.81
2022-12-29T08:22:37.483Z,4.84
2022-12-29T08:25:06.189Z,4.88
2022-12-29T08:27:33.949Z,4.93
2022-12-29T08:30:01.842Z,4.98
2022-12-29T08:32:29.690Z,5.02
2022-12-29T08:34:57.461Z,5.07
2022-12-29T08:37:30.865Z,5.10
2022-12-29T08:40:00.625Z,5.14
2022-12-29T08:42:31.477Z,5.20
2022-12-29T08:44:59.431Z,5.25
2022-12-29T08:47:27.323Z,5.33
2022-12-29T08:49:55.121Z,5.41
2022-12-29T08:52:23.322Z,5.49
2022-12-29T08:54:52.182Z,5.55
2022-12-29T08:57:19.950Z,5.60
2022-12-29T09:00:01.730Z,5.66
2022-12-29T09:02:29.899Z,5.69
2022-12-29T09:04:57.842Z,5.72
2022-12-29T09:07:25.841Z,5.75
2022-12-29T09:09:53.605Z,5.77
2022-12-29T09:12:21.388Z,5.78
2022-12-29T09:14:49.070Z,5.79
2022-12-29T09:17:35.420Z,5.82
2022-12-29T09:20:03.609Z,5.85
2022-12-29T09:22:31.625Z,5.90
2022-12-29T09:24:59.455Z,5.96
2022-12-29T09:27:27.521Z,6.00
2022-12-29T09:29:55.341Z,6.04
2022-12-29T09:32:23.730Z,6.08
2022-12-29T09:34:52.174Z,6.11
2022-12-29T09:37:20.494Z,6.16
2022-12-29T09:39:54.079Z,6.21
2022-12-29T09:42:26.360Z,6.28
2022-12-29T09:45:02.213Z,6.34
2022-12-29T09:47:30.140Z,6.38
2022-12-29T09:50:01.962Z,6.40
2022-12-29T09:52:32.931Z,6.42
2022-12-29T09:55:07.545Z,6.43
2022-12-29T09:57:41.325Z,6.42
2022-12-29T10:00:13.794Z,6.41
2022-12-29T10:02:43.650Z,6.41
2022-12-29T10:05:17.424Z,6.40
2022-12-29T10:07:49.463Z,6.39
2022-12-29T10:10:24.061Z,6.39
2022-12-29T10:12:59.166Z,6.41
2022-12-29T10:15:40.365Z,6.43
2022-12-29T10:18:15.870Z,6.46
2022-12-29T10:20:50.603Z,6.49
2022-12-29T10:23:23.383Z,6.50
2022-12-29T10:25:53.904Z,6.50
2022-12-29T10:28:23.004Z,6.50
2022-12-29T10:30:52.920Z,6.50
2022-12-29T10:33:24.143Z,6.51
2022-12-29T10:35:52.212Z,6.53
2022-12-29T10:38:24.810Z,6.55
2022-12-29T10:40:56.677Z,6.60
2022-12-29T10:43:26.482Z,6.64
2022-12-29T10:45:55.592Z,6.68
2022-12-29T10:48:31.478Z,6.72
2022-12-29T10:51:02.421Z,6.76
2022-12-29T10:53:36.125Z,6.80
2022-12-29T10:56:07.128Z,6.83
2022-12-29T10:58:34.885Z,6.88
2022-12-29T11:01:04.362Z,6.91
2022-12-29T11:03:42.618Z,6.95
2022-12-29T11:06:11.707Z,7.00
2022-12-29T11:08:43.569Z,7.05
2022-12-29T11:11:11.313Z,7.09
2022-12-29T11:13:48.817Z,7.13
2022-12-29T11:16:27.692Z,7.16
2022-12-29T11:18:55.498Z,7.18
2022-12-29T11:21:26.473Z,7.19
2022-12-29T11:23:57.934Z,7.21
2022-12-29T11:26:31.803Z,7.21
2022-12-29T11:29:18.213Z,7.23
2022-12-29T11:31:46.828Z,7.24
2022-12-29T11:34:18.853Z,7.26
2022-12-29T11:36:46.927Z,7.26
2022-12-29T11:39:26.678Z,7.24
2022-12-29T11:41:54.749Z,7.24
2022-12-29T11:44:22.697Z,7.24
2022-12-29T11:46:52.842Z,7.24
2022-12-29T11:49:21.436Z,7.24
2022-12-29T11:51:50.469Z,7.25
2022-12-29T11:54:20.263Z,7.27
2022-12-29T11:56:49.016Z,7.28
2022-12-29T11:59:25.973Z,7.29
2022-12-29T12:01:54.181Z,7.34
2022-12-29T12:04:23.939Z,7.37
2022-12-29T12:06:59.039Z,7.41
2022-12-29T12:09:30.702Z,7.47
2022-12-29T12:12:00.186Z,7.51
2022-12-29T12:14:33.270Z,7.57
2022-12-29T12:17:11.605Z,7.63
2022-12-29T12:19:44.273Z,7.68
2022-12-29T12:22:15.163Z,7.72
2022-12-29T12:24:46.044Z,7.75
2022-12-29T12:27:16.230Z,7.76
2022-12-29T12:29:48.138Z,7.77
2022-12-29T12:32:18.294Z,7.78
2022-12-29T12:34:47.256Z,7.78
2022-12-29T12:37:29.951Z,7.78
2022-12-29T12:40:07.660Z,7.79
2022-12-29T12:42:41.922Z,7.82
2022-12-29T12:45:27.835Z,7.85
2022-12-29T12:48:01.482Z,7.86
2022-12-29T12:50:40.191Z,7.88
2022-12-29T12:53:16.352Z,7.89
2022-12-29T12:55:56.642Z,7.90
2022-12-29T12:58:30.725Z,7.91
2022-12-29T13:01:07.431Z,7.91
2022-12-29T13:03:45.817Z,7.91
2022-12-29T13:06:19.304Z,7.92
2022-12-29T13:09:10.366Z,7.92
2022-12-29T13:11:46.340Z,7.92
2022-12-29T13:14:23.415Z,7.93
2022-12-29T13:16:55.268Z,7.94
2022-12-29T13:19:29.382Z,7.92
2022-12-29T13:22:06.649Z,7.92
2022-12-29T13:24:42.378Z,7.93
2022-12-29T13:27:15.395Z,7.92
2022-12-29T13:29:47.567Z,7.92
2022-12-29T13:32:23.660Z,7.93
2022-12-29T13:34:57.847Z,7.96
2022-12-29T13:37:27.166Z,8.00
2022-12-29T13:39:57.322Z,8.05
2022-12-29T13:42:25.818Z,8.09
2022-12-29T13:44:55.477Z,8.11
2022-12-29T13:47:28.102Z,8.14
2022-12-29T13:49:57.188Z,8.15
2022-12-29T13:52:32.608Z,8.14
2022-12-29T13:55:03.170Z,8.13
2022-12-29T13:57:40.842Z,8.11
2022-12-29T14:00:14.073Z,8.09
2022-12-29T14:02:51.810Z,8.07
2022-12-29T14:05:29.906Z,8.05
2022-12-29T14:08:01.977Z,8.03
2022-12-29T14:10:33.899Z,8.04
2022-12-29T14:13:03.339Z,8.03
2022-12-29T14:15:31.375Z,8.02
2022-12-29T14:18:06.341Z,8.01
2022-12-29T14:20:34.887Z,8.00
2022-12-29T14:23:17.449Z,8.02
2022-12-29T14:26:00.051Z,8.04
2022-12-29T14:28:29.200Z,8.06
2022-12-29T14:30:57.640Z,8.08
2022-12-29T14:33:27.056Z,8.10
2022-12-29T14:35:55.798Z,8.10
2022-12-29T14:38:28.207Z,8.09
2022-12-29T14:41:12.949Z,8.07
2022-12-29T14:43:52.300Z,8.05
2022-12-29T14:46:20.148Z,8.03
2022-12-29T14:48:48.401Z,8.01
2022-12-29T14:51:21.227Z,7.99
2022-12-29T14:53:49.598Z,7.98
2022-12-29T14:56:18.241Z,7.97
2022-12-29T14:58:51.624Z,7.96
2022-12-29T15:01:26.079Z,7.94
2022-12-29T15:03:57.470Z,7.93
2022-12-29T15:06:26.327Z,7.93
2022-12-29T15:08:56.748Z,7.95
2022-12-29T15:11:25.698Z,7.99
2022-12-29T15:13:53.706Z,8.03
2022-12-29T15:16:25.455Z,8.02
2022-12-29T15:18:53.191Z,8.02
2022-12-29T15:21:24.565Z,8.01
2022-12-29T15:23:53.258Z,7.98
2022-12-29T15:26:23.058Z,7.95
2022-12-29T15:28:51.994Z,7.90
2022-12-29T15:31:24.854Z,7.87
2022-12-29T15:34:04.210Z,7.82
2022-12-29T15:36:37.606Z,7.78
2022-12-29T15:39:19.223Z,7.75
2022-12-29T15:42:04.363Z,7.70
2022-12-29T15:44:36.410Z,7.67
2022-12-29T15:47:05.289Z,7.66
2022-12-29T15:49:36.677Z,7.62
2022-12-29T15:52:08.792Z,7.57
2022-12-29T15:54:37.415Z,7.53
2022-12-29T15:57:16.735Z,7.51
2022-12-29T15:59:47.407Z,7.50
2022-12-29T16:02:15.512Z,7.50
2022-12-29T16:05:16.017Z,7.50
2022-12-29T16:07:41.737Z,7.51
2022-12-29T16:10:23.512Z,7.53
2022-12-29T16:12:51.547Z,7.53
2022-12-29T16:15:19.863Z,7.50
2022-12-29T16:17:49.019Z,7.46
2022-12-29T16:20:18.851Z,7.42
2022-12-29T16:22:49.669Z,7.37
2022-12-29T16:25:20.831Z,7.33
2022-12-29T16:27:48.690Z,7.28
2022-12-29T16:30:24.288Z,7.24
2022-12-29T16:32:57.770Z,7.21
2022-12-29T16:35:27.165Z,7.19
2022-12-29T16:38:13.753Z,7.16
2022-12-29T16:40:50.946Z,7.13
2022-12-29T16:43:23.501Z,7.13
2022-12-29T16:46:08.882Z,7.13
2022-12-29T16:48:37.676Z,7.17
2022-12-29T16:51:07.300Z,7.21
2022-12-29T16:53:37.661Z,7.29
2022-12-29T16:56:10.134Z,7.36
2022-12-29T16:58:39.183Z,7.42
2022-12-29T17:01:14.979Z,7.48
2022-12-29T17:03:44.892Z,7.54
2022-12-29T17:06:15.110Z,7.59
2022-12-29T17:08:43.478Z,7.61
2022-12-29T17:11:38.810Z,7.62
2022-12-29T17:14:15.530Z,7.63
2022-12-29T17:16:43.740Z,7.62
2022-12-29T17:19:16.522Z,7.62
2022-12-29T17:21:44.621Z,7.62
2022-12-29T17:24:15.606Z,7.62
2022-12-29T17:26:43.398Z,7.61
2022-12-29T17:29:13.685Z,7.61
2022-12-29T17:31:41.520Z,7.60
2022-12-29T17:34:11.631Z,7.60
2022-12-29T17:36:39.534Z,7.59
2022-12-29T17:39:08.625Z,7.58
2022-12-29T17:41:36.719Z,7.59
2022-12-29T17:44:04.993Z,7.61
2022-12-29T17:46:32.723Z,7.63
2022-12-29T17:49:00.960Z,7.65
2022-12-29T17:51:28.950Z,7.67
2022-12-29T17:53:56.708Z,7.69
2022-12-29T17:56:24.435Z,7.70
2022-12-29T17:58:52.403Z,7.69
2022-12-29T18:01:21.485Z,7.69
2022-12-29T18:03:49.606Z,7.67
2022-12-29T18:06:17.588Z,7.65
2022-12-29T18:08:45.231Z,7.63
2022-12-29T18:11:20.519Z,7.59
2022-12-29T18:13:48.410Z,7.56
2022-12-29T18:16:16.393Z,7.52
2022-12-29T18:18:44.099Z,7.49
2022-12-29T18:21:16.624Z,7.46
2022-12-29T18:23:44.445Z,7.43
2022-12-29T18:26:19.614Z,7.39
2022-12-29T18:28:50.728Z,7.37
2022-12-29T18:31:20.285Z,7.36
2022-12-29T18:33:48.862Z,7.34
2022-12-29T18:36:17.047Z,7.31
2022-12-29T18:38:46.060Z,7.28
2022-12-29T18:41:15.749Z,7.26
2022-12-29T18:43:43.818Z,7.23
2022-12-29T18:46:14.933Z,7.21
2022-12-29T18:48:47.020Z,7.20
2022-12-29T18:51:16.459Z,7.21
2022-12-29T18:53:44.976Z,7.23
2022-12-29T18:56:13.538Z,7.26
2022-12-29T18:58:41.433Z,7.28
2022-12-29T19:01:18.459Z,7.29
2022-12-29T19:03:47.312Z,7.28
2022-12-29T19:06:15.340Z,7.29
2022-12-29T19:08:43.445Z,7.29
2022-12-29T19:11:11.175Z,7.28
2022-12-29T19:13:39.996Z,7.27
2022-12-29T19:16:09.144Z,7.26
2022-12-29T19:18:47.472Z,7.25
2022-12-29T19:21:19.408Z,7.23
2022-12-29T19:23:47.628Z,7.22
2022-12-29T19:26:27.221Z,7.22
2022-12-29T19:28:55.711Z,7.21
2022-12-29T19:31:23.808Z,7.21
2022-12-29T19:33:52.146Z,7.19
2022-12-29T19:36:20.528Z,7.18
2022-12-29T19:38:48.267Z,7.19
2022-12-29T19:41:16.130Z,7.19
2022-12-29T19:43:44.492Z,7.19
2022-12-29T19:46:15.091Z,7.22
2022-12-29T19:48:43.151Z,7.25
2022-12-29T19:51:15.083Z,7.29
2022-12-29T19:53:43.355Z,7.34
2022-12-29T19:56:11.815Z,7.39
2022-12-29T19:58:45.204Z,7.44
2022-12-29T20:01:15.678Z,7.51
2022-12-29T20:03:43.918Z,7.56
2022-12-29T20:06:11.902Z,7.60
2022-12-29T20:08:40.266Z,7.65
2022-12-29T20:11:09.524Z,7.68
2022-12-29T20:13:37.608Z,7.71
2022-12-29T20:16:11.858Z,7.73
2022-12-29T20:18:39.875Z,7.76
2022-12-29T20:21:08.868Z,7.76
2022-12-29T20:23:38.590Z,7.76
2022-12-29T20:26:08.521Z,7.76
2022-12-29T20:28:36.410Z,7.76
2022-12-29T20:31:07.193Z,7.74
2022-12-29T20:33:35.684Z,7.73
2022-12-29T20:36:07.519Z,7.71
2022-12-29T20:38:35.951Z,7.70
2022-12-29T20:41:04.121Z,7.69
2022-12-29T20:43:33.585Z,7.70
2022-12-29T20:46:21.050Z,7.71
2022-12-29T20:49:03.101Z,7.74
2022-12-29T20:52:07.489Z,7.75
2022-12-29T20:54:39.435Z,7.75
2022-12-29T20:57:14.813Z,7.74
2022-12-29T20:59:43.879Z,7.74
2022-12-29T21:02:28.899Z,7.71
2022-12-29T21:05:22.774Z,7.70
2022-12-29T21:07:45.539Z,7.68
2022-12-29T21:10:13.642Z,7.67
2022-12-29T21:12:42.638Z,7.65
2022-12-29T21:15:15.199Z,7.64
2022-12-29T21:17:44.031Z,7.63
2022-12-29T21:20:20.887Z,7.63
2022-12-29T21:22:49.790Z,7.64
2022-12-29T21:25:18.025Z,7.65
2022-12-29T21:27:45.894Z,7.65
2022-12-29T21:32:59.167Z,7.66
2022-12-29T21:35:30.599Z,7.66
2022-12-29T21:37:58.986Z,7.70
2022-12-29T21:40:27.665Z,7.75
2022-12-29T21:42:56.045Z,7.81
2022-12-29T21:45:27.200Z,7.86
2022-12-29T21:48:15.495Z,7.90
2022-12-29T21:51:05.854Z,7.94
2022-12-29T21:53:39.665Z,7.97
2022-12-29T21:56:09.615Z,7.98
2022-12-29T21:58:57.185Z,7.98
2022-12-29T22:01:43.888Z,7.98
2022-12-29T22:04:30.761Z,7.97
2022-12-29T22:07:16.888Z,7.95
2022-12-29T22:10:03.454Z,7.94
2022-12-29T22:12:50.888Z,7.93
2022-12-29T22:15:19.921Z,7.92
2022-12-29T22:17:49.301Z,7.89
2022-12-29T22:20:23.090Z,7.87
2022-12-29T22:22:51.047Z,7.87
2022-12-29T22:25:19.474Z,7.87
2022-12-29T22:27:47.274Z,7.88
2022-12-29T22:30:15.789Z,7.89
2022-12-29T22:32:43.860Z,7.90
2022-12-29T22:35:13.411Z,7.90
2022-12-29T22:37:44.303Z,7.90
2022-12-29T22:40:36.609Z,7.90
2022-12-29T22:43:11.071Z,7.90
2022-12-29T22:45:41.851Z,7.89
2022-12-29T22:48:12.987Z,7.87
2022-12-29T22:50:43.758Z,7.85
2022-12-29T22:53:16.400Z,7.84
2022-12-29T22:55:47.136Z,7.83
2022-12-29T22:58:15.246Z,7.83
2022-12-29T23:00:42.973Z,7.80
2022-12-29T23:03:11.244Z,7.78
2022-12-29T23:05:41.501Z,7.76
2022-12-29T23:08:09.380Z,7.75
2022-12-29T23:10:44.429Z,7.78
2022-12-29T23:13:12.440Z,7.83
2022-12-29T23:15:46.755Z,7.86
2022-12-29T23:18:15.411Z,7.88
2022-12-29T23:20:43.414Z,7.90
2022-12-29T23:23:11.312Z,7.90
2022-12-29T23:25:39.282Z,7.90
2022-12-29T23:28:09.597Z,7.89
2022-12-29T23:30:38.076Z,7.87
2022-12-29T23:33:07.880Z,7.85
2022-12-29T23:35:36.662Z,7.83
2022-12-29T23:38:04.474Z,7.79
2022-12-29T23:40:33.087Z,7.76
2022-12-29T23:43:00.886Z,7.73
2022-12-29T23:45:28.784Z,7.69
2022-12-29T23:47:56.647Z,7.65
2022-12-29T23:50:24.447Z,7.63
2022-12-29T23:52:52.358Z,7.60
2022-12-29T23:55:22.204Z,7.59
2022-12-29T23:57:54.864Z,7.59
